createdAt,value
2023-03-18T00:00:23.637Z,987.12
2023-03-18T00:01:23.628Z,987.11
2023-03-18T00:02:23.665Z,987.13
2023-03-18T00:03:23.620Z,987.15
2023-03-18T00:04:23.634Z,987.12
2023-03-18T00:05:23.594Z,987.26
2023-03-18T00:06:23.587Z,987.17
2023-03-18T00:07:23.581Z,987.17
2023-03-18T00:08:23.569Z,987.25
2023-03-18T00:09:23.582Z,987.22
2023-03-18T00:10:23.558Z,987.25
2023-03-18T00:11:23.549Z,987.28
2023-03-18T00:12:23.532Z,987.20
2023-03-18T00:13:23.525Z,987.34
2023-03-18T00:14:23.552Z,987.25
2023-03-18T00:15:23.551Z,987.34
2023-03-18T00:16:23.587Z,987.36
2023-03-18T00:17:23.616Z,987.34
2023-03-18T00:18:23.497Z,987.41
2023-03-18T00:19:23.506Z,987.34
2023-03-18T00:20:23.480Z,987.38
2023-03-18T00:21:23.456Z,987.40
2023-03-18T00:22:24.469Z,987.46
2023-03-18T00:23:23.464Z,987.40
2023-03-18T00:24:23.549Z,987.44
2023-03-18T00:25:23.461Z,987.42
2023-03-18T00:26:23.437Z,987.41
2023-03-18T00:27:23.430Z,987.35
2023-03-18T00:28:23.411Z,987.35
2023-03-18T00:29:23.440Z,987.43
2023-03-18T00:30:23.410Z,987.41
2023-03-18T00:31:23.541Z,987.36
2023-03-18T00:32:23.390Z,987.34
2023-03-18T00:33:23.378Z,987.38
2023-03-18T00:34:23.394Z,987.40
2023-03-18T00:35:23.379Z,987.47
2023-03-18T00:36:23.366Z,987.46
2023-03-18T00:37:23.348Z,987.49
2023-03-18T00:38:23.339Z,987.59
2023-03-18T00:39:23.360Z,987.51
2023-03-18T00:40:23.333Z,987.62
2023-03-18T00:41:23.332Z,987.64
2023-03-18T00:42:23.323Z,987.64
2023-03-18T00:43:23.315Z,987.54
2023-03-18T00:44:23.331Z,987.61
2023-03-18T00:45:23.292Z,987.61
2023-03-18T00:46:23.381Z,987.57
2023-03-18T00:47:23.291Z,987.67
2023-03-18T00:48:23.276Z,987.63
2023-03-18T00:49:23.313Z,987.65
2023-03-18T00:50:23.262Z,987.64
2023-03-18T00:51:23.278Z,987.61
2023-03-18T00:52:23.253Z,987.61
2023-03-18T00:53:23.230Z,987.63
2023-03-18T00:54:23.257Z,987.63
2023-03-18T00:55:23.213Z,987.60
2023-03-18T00:56:23.215Z,987.62
2023-03-18T00:57:23.198Z,987.68
2023-03-18T00:58:23.206Z,987.68
2023-03-18T00:59:23.187Z,987.74
2023-03-18T01:00:23.216Z,987.64
2023-03-18T01:01:23.234Z,987.69
2023-03-18T01:02:23.195Z,987.72
2023-03-18T01:03:23.158Z,987.66
2023-03-18T01:04:23.151Z,987.69
2023-03-18T01:05:23.171Z,987.74
2023-03-18T01:06:23.140Z,987.80
2023-03-18T01:07:23.128Z,987.77
2023-03-18T01:08:23.119Z,987.80
2023-03-18T01:09:23.124Z,987.79
2023-03-18T01:10:23.128Z,987.90
2023-03-18T01:11:23.093Z,987.80
2023-03-18T01:12:23.089Z,987.79
2023-03-18T01:13:23.082Z,987.83
2023-03-18T01:14:23.090Z,987.81
2023-03-18T01:15:23.090Z,987.78
2023-03-18T01:16:23.097Z,987.79
2023-03-18T01:17:23.055Z,987.83
2023-03-18T01:18:23.046Z,987.78
2023-03-18T01:19:23.292Z,987.76
2023-03-18T01:20:23.052Z,987.75
2023-03-18T01:21:23.024Z,987.76
2023-03-18T01:22:23.015Z,987.84
2023-03-18T01:23:23.002Z,987.85
2023-03-18T01:24:23.003Z,987.84
2023-03-18T01:25:23.013Z,987.81
2023-03-18T01:26:22.990Z,987.79
2023-03-18T01:27:22.979Z,987.83
2023-03-18T01:28:22.997Z,987.82
2023-03-18T01:29:22.962Z,987.80
2023-03-18T01:30:22.977Z,987.84
2023-03-18T01:31:22.979Z,987.81
2023-03-18T01:32:22.940Z,987.80
2023-03-18T01:33:22.927Z,987.81
2023-03-18T01:34:22.928Z,987.79
2023-03-18T01:35:22.973Z,987.88
2023-03-18T01:36:22.908Z,987.82
2023-03-18T01:38:08.020Z,987.80
2023-03-18T01:39:08.052Z,987.81
2023-03-18T01:40:08.056Z,987.84
2023-03-18T01:41:08.027Z,987.85
2023-03-18T01:42:08.014Z,987.89
2023-03-18T01:43:08.017Z,987.84
2023-03-18T01:44:08.001Z,987.84
2023-03-18T01:45:08.027Z,987.81
2023-03-18T01:46:08.063Z,987.81
2023-03-18T01:47:08.038Z,987.83
2023-03-18T01:48:07.981Z,987.79
2023-03-18T01:49:07.981Z,987.84
2023-03-18T01:50:07.981Z,987.80
2023-03-18T01:51:07.962Z,987.81
2023-03-18T01:52:07.948Z,987.82
2023-03-18T01:53:07.959Z,987.82
2023-03-18T01:54:07.932Z,987.77
2023-03-18T01:55:09.077Z,987.77
2023-03-18T01:56:09.061Z,987.71
2023-03-18T01:57:09.043Z,987.79
2023-03-18T01:58:09.030Z,987.81
2023-03-18T01:59:09.026Z,987.80
2023-03-18T02:00:09.047Z,987.76
2023-03-18T02:01:09.034Z,987.74
2023-03-18T02:02:09.006Z,987.79
2023-03-18T02:03:09.010Z,987.80
2023-03-18T02:04:08.992Z,987.85
2023-03-18T02:05:09.001Z,987.79
2023-03-18T02:06:08.972Z,987.76
2023-03-18T02:07:08.961Z,987.74
2023-03-18T02:08:08.961Z,987.80
2023-03-18T02:09:08.953Z,987.78
2023-03-18T02:10:09.785Z,987.80
2023-03-18T02:11:08.933Z,987.83
2023-03-18T02:12:08.936Z,987.85
2023-03-18T02:13:08.922Z,987.79
2023-03-18T02:14:08.913Z,987.78
2023-03-18T02:15:08.937Z,987.78
2023-03-18T02:16:08.897Z,987.75
2023-03-18T02:17:08.880Z,987.87
2023-03-18T02:18:08.877Z,987.87
2023-03-18T02:19:08.871Z,987.83
2023-03-18T02:20:08.902Z,987.87
2023-03-18T02:21:08.865Z,987.87
2023-03-18T02:22:08.852Z,987.86
2023-03-18T02:23:08.843Z,987.92
2023-03-18T02:24:08.825Z,987.81
2023-03-18T02:25:08.857Z,987.72
2023-03-18T02:26:08.821Z,987.82
2023-03-18T02:27:08.808Z,987.85
2023-03-18T02:28:08.801Z,987.77
2023-03-18T02:29:08.796Z,987.73
2023-03-18T02:30:08.810Z,987.73
2023-03-18T02:31:08.855Z,987.79
2023-03-18T02:32:08.782Z,987.80
2023-03-18T02:33:08.923Z,987.74
2023-03-18T02:34:08.762Z,987.82
2023-03-18T02:35:08.787Z,987.90
2023-03-18T02:36:08.754Z,987.92
2023-03-18T02:37:08.740Z,987.91
2023-03-18T02:38:08.729Z,987.97
2023-03-18T02:39:08.724Z,987.96
2023-03-18T02:40:08.747Z,987.93
2023-03-18T02:41:08.700Z,987.91
2023-03-18T02:42:08.693Z,987.90
2023-03-18T02:43:08.687Z,987.91
2023-03-18T02:44:08.679Z,987.99
2023-03-18T02:45:08.710Z,987.99
2023-03-18T02:46:08.676Z,987.89
2023-03-18T02:47:08.660Z,987.97
2023-03-18T02:48:08.656Z,987.94
2023-03-18T02:49:08.638Z,987.94
2023-03-18T02:50:08.635Z,987.89
2023-03-18T02:51:08.652Z,987.84
2023-03-18T02:52:08.626Z,987.93
2023-03-18T02:53:08.611Z,987.98
2023-03-18T02:54:08.614Z,988.01
2023-03-18T02:55:08.602Z,987.98
2023-03-18T02:56:08.627Z,987.98
2023-03-18T02:57:08.588Z,987.93
2023-03-18T02:58:08.582Z,988.01
2023-03-18T02:59:08.574Z,987.95
2023-03-18T03:00:08.564Z,987.98
2023-03-18T03:01:08.621Z,987.92
2023-03-18T03:02:08.587Z,987.98
2023-03-18T03:03:08.725Z,987.91
2023-03-18T03:04:08.542Z,987.93
2023-03-18T03:05:08.538Z,987.98
2023-03-18T03:06:08.560Z,987.94
2023-03-18T03:07:08.518Z,987.95
2023-03-18T03:08:08.520Z,987.92
2023-03-18T03:09:08.503Z,987.98
2023-03-18T03:10:08.485Z,987.93
2023-03-18T03:11:09.512Z,987.95
2023-03-18T03:12:08.483Z,987.97
2023-03-18T03:13:08.487Z,987.97
2023-03-18T03:14:08.482Z,987.97
2023-03-18T03:15:08.468Z,988.02
2023-03-18T03:16:08.511Z,987.96
2023-03-18T03:17:08.452Z,988.02
2023-03-18T03:18:08.434Z,987.95
2023-03-18T03:19:08.433Z,988.04
2023-03-18T03:20:08.422Z,987.93
2023-03-18T03:21:08.440Z,987.98
2023-03-18T03:22:08.421Z,987.93
2023-03-18T03:23:08.401Z,988.01
2023-03-18T03:24:08.403Z,988.03
2023-03-18T03:25:08.387Z,988.06
2023-03-18T03:26:08.400Z,987.98
2023-03-18T03:27:08.375Z,988.04
2023-03-18T03:28:08.364Z,988.01
2023-03-18T03:29:08.353Z,988.03
2023-03-18T03:30:08.358Z,987.98
2023-03-18T03:31:08.382Z,988.06
2023-03-18T03:32:08.338Z,988.01
2023-03-18T03:33:08.364Z,988.08
2023-03-18T03:34:08.319Z,988.05
2023-03-18T03:35:08.316Z,988.00
2023-03-18T03:36:08.367Z,988.00
2023-03-18T03:37:08.303Z,987.97
2023-03-18T03:38:08.286Z,987.95
2023-03-18T03:39:09.293Z,987.98
2023-03-18T03:40:08.267Z,988.02
2023-03-18T03:41:08.305Z,988.03
2023-03-18T03:42:08.266Z,987.99
2023-03-18T03:43:08.252Z,987.96
2023-03-18T03:44:08.255Z,987.99
2023-03-18T03:45:08.241Z,987.97
2023-03-18T03:46:08.306Z,987.95
2023-03-18T03:47:08.232Z,988.02
2023-03-18T03:48:08.213Z,988.03
2023-03-18T03:49:08.209Z,987.96
2023-03-18T03:50:08.210Z,988.02
2023-03-18T03:51:08.326Z,988.02
2023-03-18T03:52:08.190Z,988.01
2023-03-18T03:53:08.179Z,988.04
2023-03-18T03:54:08.169Z,988.06
2023-03-18T03:55:08.163Z,988.04
2023-03-18T03:56:08.183Z,988.06
2023-03-18T03:57:08.148Z,988.07
2023-03-18T03:58:08.149Z,988.13
2023-03-18T03:59:08.132Z,988.02
2023-03-18T04:00:08.123Z,988.03
2023-03-18T04:01:08.138Z,988.10
2023-03-18T04:02:08.108Z,988.07
2023-03-18T04:03:08.099Z,988.06
2023-03-18T04:04:08.150Z,988.15
2023-03-18T04:05:08.081Z,988.11
2023-03-18T04:06:08.121Z,988.05
2023-03-18T04:07:08.070Z,988.02
2023-03-18T04:08:08.060Z,988.02
2023-03-18T04:09:08.049Z,988.01
2023-03-18T04:10:08.042Z,988.02
2023-03-18T04:11:08.081Z,988.10
2023-03-18T04:12:08.029Z,988.08
2023-03-18T04:13:08.022Z,988.09
2023-03-18T04:14:08.014Z,988.06
2023-03-18T04:15:08.010Z,988.09
2023-03-18T04:16:08.074Z,988.03
2023-03-18T04:17:08.016Z,988.07
2023-03-18T04:18:07.980Z,987.99
2023-03-18T04:19:07.971Z,987.99
2023-03-18T04:20:07.963Z,988.00
2023-03-18T04:21:07.957Z,987.99
2023-03-18T04:22:07.979Z,988.03
2023-03-18T04:23:07.963Z,988.06
2023-03-18T04:24:07.941Z,988.07
2023-03-18T04:25:07.942Z,987.97
2023-03-18T04:26:07.920Z,988.09
2023-03-18T04:27:07.940Z,988.01
2023-03-18T04:28:07.904Z,988.07
2023-03-18T04:29:07.899Z,988.04
2023-03-18T04:30:07.894Z,988.05
2023-03-18T04:31:07.966Z,988.06
2023-03-18T04:32:07.895Z,988.04
2023-03-18T04:33:07.964Z,988.06
2023-03-18T04:34:07.862Z,988.11
2023-03-18T04:35:07.865Z,988.12
2023-03-18T04:36:07.857Z,988.15
2023-03-18T04:37:07.868Z,988.14
2023-03-18T04:38:07.826Z,988.10
2023-03-18T04:39:07.810Z,988.15
2023-03-18T04:40:07.812Z,988.13
2023-03-18T04:41:08.804Z,988.11
2023-03-18T04:42:07.822Z,988.08
2023-03-18T04:43:07.790Z,988.08
2023-03-18T04:44:07.795Z,988.11
2023-03-18T04:45:07.776Z,988.02
2023-03-18T04:46:07.765Z,988.04
2023-03-18T04:47:07.795Z,987.99
2023-03-18T04:48:07.764Z,988.12
2023-03-18T04:49:07.760Z,988.12
2023-03-18T04:50:07.739Z,988.07
2023-03-18T04:51:07.746Z,988.08
2023-03-18T04:52:07.746Z,987.99
2023-03-18T04:53:07.723Z,988.03
2023-03-18T04:54:07.707Z,987.95
2023-03-18T04:55:07.696Z,988.01
2023-03-18T04:56:07.690Z,987.96
2023-03-18T04:57:07.701Z,987.93
2023-03-18T04:58:07.677Z,987.96
2023-03-18T04:59:07.668Z,987.90
2023-03-18T05:00:09.661Z,987.89
2023-03-18T05:01:07.688Z,987.89
2023-03-18T05:02:07.669Z,987.86
2023-03-18T05:03:07.638Z,987.91
2023-03-18T05:04:07.685Z,987.95
2023-03-18T05:05:07.658Z,987.92
2023-03-18T05:06:07.613Z,987.97
2023-03-18T05:07:07.639Z,988.05
2023-03-18T05:08:07.619Z,987.99
2023-03-18T05:09:08.590Z,988.06
2023-03-18T05:10:07.590Z,988.00
2023-03-18T05:11:07.577Z,987.96
2023-03-18T05:12:07.593Z,988.02
2023-03-18T05:13:07.560Z,987.92
2023-03-18T05:14:08.555Z,987.94
2023-03-18T05:15:07.546Z,987.91
2023-03-18T05:16:07.557Z,987.92
2023-03-18T05:17:07.560Z,987.96
2023-03-18T05:18:07.555Z,987.96
2023-03-18T05:19:07.523Z,987.95
2023-03-18T05:20:07.515Z,988.00
2023-03-18T05:21:07.518Z,988.06
2023-03-18T05:22:07.516Z,988.09
2023-03-18T05:23:07.479Z,988.05
2023-03-18T05:24:07.479Z,988.03
2023-03-18T05:25:07.473Z,988.11
2023-03-18T05:26:07.461Z,988.16
2023-03-18T05:27:07.538Z,988.13
2023-03-18T05:28:10.138Z,988.25
2023-03-18T05:29:07.449Z,988.21
2023-03-18T05:30:07.443Z,988.19
2023-03-18T05:31:07.440Z,988.30
2023-03-18T05:32:07.490Z,988.26
2023-03-18T05:33:07.457Z,988.31
2023-03-18T05:34:07.418Z,988.31
2023-03-18T05:35:07.386Z,988.28
2023-03-18T05:36:07.417Z,988.30
2023-03-18T05:37:07.400Z,988.26
2023-03-18T05:38:07.362Z,988.26
2023-03-18T05:39:07.359Z,988.24
2023-03-18T05:40:07.351Z,988.21
2023-03-18T05:41:07.355Z,988.29
2023-03-18T05:42:07.360Z,988.26
2023-03-18T05:43:07.330Z,988.34
2023-03-18T05:44:07.339Z,988.29
2023-03-18T05:45:07.312Z,988.26
2023-03-18T05:46:07.383Z,988.26
2023-03-18T05:47:07.339Z,988.31
2023-03-18T05:48:07.311Z,988.33
2023-03-18T05:49:07.279Z,988.33
2023-03-18T05:50:07.269Z,988.34
2023-03-18T05:51:07.262Z,988.41
2023-03-18T05:52:07.299Z,988.30
2023-03-18T05:53:07.247Z,988.31
2023-03-18T05:54:07.239Z,988.40
2023-03-18T05:55:07.232Z,988.36
2023-03-18T05:56:07.223Z,988.39
2023-03-18T05:57:07.218Z,988.39
2023-03-18T05:58:07.239Z,988.40
2023-03-18T05:59:07.200Z,988.34
2023-03-18T06:00:07.188Z,988.39
2023-03-18T06:01:07.195Z,988.37
2023-03-18T06:02:07.201Z,988.40
2023-03-18T06:03:07.298Z,988.42
2023-03-18T06:04:07.160Z,988.42
2023-03-18T06:05:07.155Z,988.46
2023-03-18T06:06:07.147Z,988.45
2023-03-18T06:07:07.143Z,988.44
2023-03-18T06:08:07.306Z,988.43
2023-03-18T06:09:07.118Z,988.45
2023-03-18T06:10:07.116Z,988.51
2023-03-18T06:11:07.114Z,988.42
2023-03-18T06:12:07.099Z,988.43
2023-03-18T06:13:07.118Z,988.44
2023-03-18T06:14:07.098Z,988.48
2023-03-18T06:15:07.076Z,988.51
2023-03-18T06:16:07.070Z,988.52
2023-03-18T06:17:07.065Z,988.52
2023-03-18T06:18:07.079Z,988.56
2023-03-18T06:19:07.049Z,988.48
2023-03-18T06:20:07.041Z,988.46
2023-03-18T06:21:07.052Z,988.51
2023-03-18T06:22:07.026Z,988.55
2023-03-18T06:23:07.040Z,988.57
2023-03-18T06:24:07.006Z,988.55
2023-03-18T06:25:07.005Z,988.56
2023-03-18T06:26:06.994Z,988.64
2023-03-18T06:27:06.984Z,988.61
2023-03-18T06:28:07.005Z,988.61
2023-03-18T06:29:06.977Z,988.53
2023-03-18T06:30:06.963Z,988.63
2023-03-18T06:31:06.993Z,988.61
2023-03-18T06:32:06.947Z,988.58
2023-03-18T06:33:07.089Z,988.66
2023-03-18T06:34:06.934Z,988.69
2023-03-18T06:35:06.926Z,988.66
2023-03-18T06:36:06.952Z,988.61
2023-03-18T06:37:06.918Z,988.63
2023-03-18T06:38:06.934Z,988.66
2023-03-18T06:39:06.886Z,988.59
2023-03-18T06:40:06.883Z,988.68
2023-03-18T06:41:06.874Z,988.67
2023-03-18T06:42:06.870Z,988.67
2023-03-18T06:43:06.901Z,988.69
2023-03-18T06:44:06.841Z,988.72
2023-03-18T06:45:07.836Z,988.75
2023-03-18T06:46:07.933Z,988.74
2023-03-18T06:47:06.828Z,988.95
2023-03-18T06:48:06.844Z,988.86
2023-03-18T06:49:06.813Z,988.81
2023-03-18T06:50:06.803Z,988.81
2023-03-18T06:51:06.801Z,988.80
2023-03-18T06:52:06.783Z,988.85
2023-03-18T06:53:06.805Z,988.85
2023-03-18T06:54:06.770Z,988.88
2023-03-18T06:55:06.785Z,988.79
2023-03-18T06:56:06.756Z,988.78
2023-03-18T06:57:06.770Z,988.92
2023-03-18T06:58:06.765Z,988.85
2023-03-18T06:59:06.735Z,988.84
2023-03-18T07:00:06.744Z,988.88
2023-03-18T07:01:06.809Z,988.85
2023-03-18T07:02:06.708Z,988.94
2023-03-18T07:03:06.735Z,988.92
2023-03-18T07:04:06.747Z,988.92
2023-03-18T07:05:06.686Z,988.87
2023-03-18T07:06:06.674Z,988.93
2023-03-18T07:07:06.666Z,988.88
2023-03-18T07:08:06.714Z,988.88
2023-03-18T07:09:06.652Z,988.89
2023-03-18T07:10:06.639Z,988.91
2023-03-18T07:11:06.631Z,988.95
2023-03-18T07:12:06.625Z,988.92
2023-03-18T07:13:06.645Z,989.01
2023-03-18T07:14:06.608Z,989.11
2023-03-18T07:15:06.600Z,989.16
2023-03-18T07:16:06.642Z,989.16
2023-03-18T07:17:06.600Z,989.10
2023-03-18T07:18:06.621Z,988.99
2023-03-18T07:19:06.565Z,988.92
2023-03-18T07:20:06.560Z,988.98
2023-03-18T07:21:06.548Z,989.01
2023-03-18T07:22:06.544Z,988.95
2023-03-18T07:23:06.559Z,989.04
2023-03-18T07:24:06.523Z,988.98
2023-03-18T07:25:06.520Z,989.08
2023-03-18T07:26:06.507Z,989.11
2023-03-18T07:27:06.498Z,989.11
2023-03-18T07:28:06.518Z,989.07
2023-03-18T07:29:06.488Z,989.02
2023-03-18T07:30:06.492Z,989.16
2023-03-18T07:31:06.488Z,989.02
2023-03-18T07:32:06.466Z,989.07
2023-03-18T07:33:06.568Z,989.08
2023-03-18T07:34:06.446Z,989.07
2023-03-18T07:35:06.458Z,989.08
2023-03-18T07:36:06.487Z,989.17
2023-03-18T07:37:06.422Z,989.25
2023-03-18T07:38:06.441Z,989.15
2023-03-18T07:39:06.420Z,989.16
2023-03-18T07:40:06.403Z,989.15
2023-03-18T07:41:06.394Z,989.16
2023-03-18T07:42:06.388Z,989.29
2023-03-18T07:43:06.379Z,989.24
2023-03-18T07:44:06.396Z,989.17
2023-03-18T07:45:06.356Z,989.11
2023-03-18T07:46:06.397Z,989.15
2023-03-18T07:47:06.347Z,989.22
2023-03-18T07:48:06.395Z,989.24
2023-03-18T07:49:06.357Z,989.27
2023-03-18T07:50:06.331Z,989.22
2023-03-18T07:51:06.312Z,989.15
2023-03-18T07:52:06.302Z,989.16
2023-03-18T07:53:07.297Z,989.17
2023-03-18T07:54:06.316Z,989.20
2023-03-18T07:55:06.295Z,989.19
2023-03-18T07:56:06.278Z,989.26
2023-03-18T07:57:06.290Z,989.34
2023-03-18T07:58:06.264Z,989.29
2023-03-18T07:59:06.281Z,989.30
2023-03-18T08:00:06.254Z,989.39
2023-03-18T08:01:06.241Z,989.35
2023-03-18T08:02:06.233Z,989.33
2023-03-18T08:03:06.230Z,989.38
2023-03-18T08:04:06.320Z,989.36
2023-03-18T08:05:06.252Z,989.33
2023-03-18T08:06:06.209Z,989.35
2023-03-18T08:07:06.195Z,989.30
2023-03-18T08:08:06.186Z,989.30
2023-03-18T08:09:06.206Z,989.28
2023-03-18T08:10:06.172Z,989.31
2023-03-18T08:11:06.165Z,989.29
2023-03-18T08:12:06.160Z,989.30
2023-03-18T08:13:06.155Z,989.25
2023-03-18T08:14:06.167Z,989.23
2023-03-18T08:15:06.136Z,989.22
2023-03-18T08:16:06.153Z,989.31
2023-03-18T08:17:06.116Z,989.28
2023-03-18T08:18:09.120Z,989.27
2023-03-18T08:19:07.132Z,989.29
2023-03-18T08:20:06.099Z,989.27
2023-03-18T08:21:06.109Z,989.32
2023-03-18T08:22:06.085Z,989.32
2023-03-18T08:23:06.078Z,989.37
2023-03-18T08:24:06.093Z,989.37
2023-03-18T08:25:06.058Z,989.42
2023-03-18T08:26:06.053Z,989.42
2023-03-18T08:27:06.043Z,989.42
2023-03-18T08:28:06.036Z,989.36
2023-03-18T08:29:06.059Z,989.39
2023-03-18T08:30:06.035Z,989.46
2023-03-18T08:31:06.035Z,989.42
2023-03-18T08:32:06.008Z,989.39
2023-03-18T08:33:06.059Z,989.40
2023-03-18T08:34:06.016Z,989.38
2023-03-18T08:35:05.985Z,989.45
2023-03-18T08:36:05.996Z,989.40
2023-03-18T08:37:05.975Z,989.36
2023-03-18T08:38:05.963Z,989.45
2023-03-18T08:39:05.998Z,989.41
2023-03-18T08:40:05.952Z,989.43
2023-03-18T08:41:05.948Z,989.41
2023-03-18T08:42:05.933Z,989.46
2023-03-18T08:43:05.922Z,989.51
2023-03-18T08:44:05.943Z,989.43
2023-03-18T08:45:05.918Z,989.49
2023-03-18T08:46:06.047Z,989.44
2023-03-18T08:47:05.900Z,989.46
2023-03-18T08:48:05.895Z,989.49
2023-03-18T08:49:05.920Z,989.51
2023-03-18T08:50:05.900Z,989.45
2023-03-18T08:51:05.866Z,989.39
2023-03-18T08:52:05.871Z,989.38
2023-03-18T08:53:05.877Z,989.39
2023-03-18T08:54:05.873Z,989.44
2023-03-18T08:55:05.837Z,989.34
2023-03-18T08:56:05.833Z,989.35
2023-03-18T08:57:05.827Z,989.39
2023-03-18T08:58:05.836Z,989.34
2023-03-18T08:59:05.835Z,989.39
2023-03-18T09:00:05.819Z,989.33
2023-03-18T09:01:05.811Z,989.43
2023-03-18T09:02:05.800Z,989.37
2023-03-18T09:03:05.825Z,989.40
2023-03-18T09:04:05.798Z,989.40
2023-03-18T09:05:05.780Z,989.44
2023-03-18T09:06:05.762Z,989.42
2023-03-18T09:07:05.758Z,989.41
2023-03-18T09:08:05.750Z,989.45
2023-03-18T09:09:05.773Z,989.41
2023-03-18T09:10:05.734Z,989.37
2023-03-18T09:11:05.724Z,989.39
2023-03-18T09:12:05.739Z,989.35
2023-03-18T09:13:05.712Z,989.43
2023-03-18T09:14:05.726Z,989.43
2023-03-18T09:15:05.693Z,989.38
2023-03-18T09:16:05.688Z,989.37
2023-03-18T09:17:05.702Z,989.37
2023-03-18T09:18:11.361Z,989.41
2023-03-18T09:19:07.717Z,989.35
2023-03-18T09:20:05.678Z,989.43
2023-03-18T09:21:05.701Z,989.41
2023-03-18T09:22:05.640Z,989.36
2023-03-18T09:23:05.624Z,989.32
2023-03-18T09:24:07.556Z,989.41
2023-03-18T09:25:06.621Z,989.37
2023-03-18T09:26:05.610Z,989.39
2023-03-18T09:27:05.619Z,989.40
2023-03-18T09:28:05.599Z,989.33
2023-03-18T09:29:05.609Z,989.41
2023-03-18T09:30:06.912Z,989.37
2023-03-18T09:31:06.629Z,989.34
2023-03-18T09:32:05.585Z,989.36
2023-03-18T09:33:05.630Z,989.33
2023-03-18T09:34:05.593Z,989.38
2023-03-18T09:35:05.568Z,989.40
2023-03-18T09:36:05.611Z,989.41
2023-03-18T09:37:05.534Z,989.42
2023-03-18T09:38:05.578Z,989.36
2023-03-18T09:39:05.574Z,989.47
2023-03-18T09:40:05.509Z,989.41
2023-03-18T09:41:05.513Z,989.33
2023-03-18T09:42:05.495Z,989.39
2023-03-18T09:43:05.494Z,989.45
2023-03-18T09:44:05.499Z,989.39
2023-03-18T09:45:05.470Z,989.36
2023-03-18T09:46:05.616Z,989.42
2023-03-18T09:47:05.578Z,989.36
2023-03-18T09:48:05.448Z,989.41
2023-03-18T09:49:05.472Z,989.46
2023-03-18T09:50:05.437Z,989.48
2023-03-18T09:51:05.426Z,989.47
2023-03-18T09:52:05.416Z,989.45
2023-03-18T09:53:05.411Z,989.43
2023-03-18T09:54:05.428Z,989.39
2023-03-18T09:55:05.410Z,989.43
2023-03-18T09:56:05.389Z,989.48
2023-03-18T09:57:05.379Z,989.43
2023-03-18T09:58:05.382Z,989.37
2023-03-18T09:59:05.389Z,989.39
2023-03-18T10:00:05.354Z,989.41
2023-03-18T10:01:05.376Z,989.38
2023-03-18T10:02:05.348Z,989.29
2023-03-18T10:03:06.556Z,989.35
2023-03-18T10:04:06.416Z,989.37
2023-03-18T10:05:05.326Z,989.27
2023-03-18T10:06:05.329Z,989.29
2023-03-18T10:07:05.312Z,989.39
2023-03-18T10:08:05.293Z,989.37
2023-03-18T10:09:05.330Z,989.35
2023-03-18T10:10:05.286Z,989.38
2023-03-18T10:11:05.283Z,989.38
2023-03-18T10:12:05.262Z,989.36
2023-03-18T10:13:05.265Z,989.36
2023-03-18T10:14:05.258Z,989.41
2023-03-18T10:15:05.280Z,989.37
2023-03-18T10:16:05.290Z,989.31
2023-03-18T10:17:05.224Z,989.31
2023-03-18T10:18:05.215Z,989.40
2023-03-18T10:19:05.224Z,989.33
2023-03-18T10:20:05.247Z,989.36
2023-03-18T10:21:05.202Z,989.41
2023-03-18T10:22:05.186Z,989.44
2023-03-18T10:23:05.181Z,989.31
2023-03-18T10:24:05.170Z,989.38
2023-03-18T10:25:05.196Z,989.34
2023-03-18T10:26:05.172Z,989.41
2023-03-18T10:27:05.154Z,989.41
2023-03-18T10:28:05.165Z,989.41
2023-03-18T10:29:05.143Z,989.44
2023-03-18T10:30:05.161Z,989.39
2023-03-18T10:31:05.151Z,989.37
2023-03-18T10:32:05.125Z,989.39
2023-03-18T10:33:05.145Z,989.42
2023-03-18T10:34:05.100Z,989.35
2023-03-18T10:35:05.129Z,989.41
2023-03-18T10:36:05.136Z,989.45
2023-03-18T10:37:05.082Z,989.40
2023-03-18T10:38:05.078Z,989.45
2023-03-18T10:39:05.061Z,989.43
2023-03-18T10:40:05.082Z,989.48
2023-03-18T10:41:05.055Z,989.38
2023-03-18T10:42:05.052Z,989.39
2023-03-18T10:43:05.046Z,989.32
2023-03-18T10:44:05.026Z,989.41
2023-03-18T10:45:05.050Z,989.46
2023-03-18T10:46:05.061Z,989.44
2023-03-18T10:47:05.052Z,989.42
2023-03-18T10:48:06.162Z,989.50
2023-03-18T10:49:05.991Z,989.46
2023-03-18T10:50:05.007Z,989.46
2023-03-18T10:51:04.978Z,989.45
2023-03-18T10:52:04.971Z,989.40
2023-03-18T10:53:04.957Z,989.40
2023-03-18T10:54:04.954Z,989.40
2023-03-18T10:55:04.978Z,989.35
2023-03-18T10:56:04.939Z,989.36
2023-03-18T10:57:04.933Z,989.41
2023-03-18T10:58:04.928Z,989.36
2023-03-18T10:59:04.919Z,989.37
2023-03-18T11:00:04.932Z,989.42
2023-03-18T11:01:04.900Z,989.30
2023-03-18T11:02:05.024Z,989.32
2023-03-18T11:03:04.923Z,989.36
2023-03-18T11:04:04.880Z,989.31
2023-03-18T11:05:04.912Z,989.31
2023-03-18T11:06:04.866Z,989.32
2023-03-18T11:07:04.859Z,989.21
2023-03-18T11:08:04.867Z,989.23
2023-03-18T11:09:04.844Z,989.20
2023-03-18T11:10:04.862Z,989.22
2023-03-18T11:11:04.822Z,989.14
2023-03-18T11:12:04.841Z,989.13
2023-03-18T11:13:04.819Z,989.17
2023-03-18T11:14:04.821Z,989.16
2023-03-18T11:15:04.924Z,989.18
2023-03-18T11:16:04.888Z,989.10
2023-03-18T11:17:04.799Z,989.17
2023-03-18T11:18:04.771Z,989.18
2023-03-18T11:19:04.762Z,989.22
2023-03-18T11:20:04.775Z,989.18
2023-03-18T11:21:04.800Z,989.18
2023-03-18T11:22:04.732Z,989.23
2023-03-18T11:23:04.728Z,989.11
2023-03-18T11:24:04.719Z,989.13
2023-03-18T11:25:04.744Z,989.13
2023-03-18T11:26:04.707Z,989.12
2023-03-18T11:27:04.697Z,989.12
2023-03-18T11:28:04.693Z,989.11
2023-03-18T11:29:04.688Z,989.08
2023-03-18T11:30:04.702Z,989.04
2023-03-18T11:31:04.709Z,989.12
2023-03-18T11:32:04.668Z,989.06
2023-03-18T11:33:04.725Z,989.05
2023-03-18T11:34:04.653Z,989.07
2023-03-18T11:35:04.668Z,989.03
2023-03-18T11:36:04.644Z,989.03
2023-03-18T11:37:04.890Z,989.01
2023-03-18T11:38:04.613Z,989.02
2023-03-18T11:39:04.603Z,989.00
2023-03-18T11:40:04.625Z,989.04
2023-03-18T11:41:04.593Z,989.02
2023-03-18T11:42:04.592Z,989.01
2023-03-18T11:43:04.568Z,989.05
2023-03-18T11:44:04.567Z,988.99
2023-03-18T11:45:04.587Z,989.02
2023-03-18T11:46:04.554Z,988.98
2023-03-18T11:47:04.591Z,989.06
2023-03-18T11:48:04.529Z,988.99
2023-03-18T11:49:04.519Z,989.03
2023-03-18T11:50:04.515Z,989.05
2023-03-18T11:51:04.532Z,988.96
2023-03-18T11:52:04.503Z,988.92
2023-03-18T11:53:04.499Z,988.99
2023-03-18T11:54:04.519Z,988.93
2023-03-18T11:55:04.483Z,988.99
2023-03-18T11:56:04.496Z,988.88
2023-03-18T11:57:04.463Z,988.99
2023-03-18T11:58:04.455Z,988.98
2023-03-18T11:59:04.442Z,988.91
2023-03-18T12:00:04.438Z,988.98
2023-03-18T12:01:04.461Z,988.92
2023-03-18T12:02:04.457Z,988.90
2023-03-18T12:03:04.408Z,988.96
2023-03-18T12:04:05.405Z,989.02
2023-03-18T12:05:04.440Z,988.99
2023-03-18T12:06:04.423Z,988.91
2023-03-18T12:07:04.388Z,989.00
2023-03-18T12:08:04.384Z,988.92
2023-03-18T12:09:04.380Z,988.90
2023-03-18T12:10:04.366Z,988.96
2023-03-18T12:11:04.386Z,989.01
2023-03-18T12:12:04.350Z,988.99
2023-03-18T12:13:04.336Z,988.94
2023-03-18T12:14:04.341Z,988.96
2023-03-18T12:15:04.331Z,988.97
2023-03-18T12:16:04.383Z,988.98
2023-03-18T12:17:04.311Z,988.94
2023-03-18T12:18:04.302Z,988.92
2023-03-18T12:19:04.299Z,988.95
2023-03-18T12:20:04.302Z,988.91
2023-03-18T12:21:04.479Z,988.90
2023-03-18T12:22:04.280Z,988.90
2023-03-18T12:23:04.268Z,988.82
2023-03-18T12:24:04.273Z,988.85
2023-03-18T12:25:04.258Z,988.89
2023-03-18T12:26:04.261Z,988.86
2023-03-18T12:27:04.234Z,988.97
2023-03-18T12:28:04.265Z,988.93
2023-03-18T12:29:04.223Z,988.92